createdAt,value
2019-03-25T02:31:27.510Z,16.77
2019-03-25T02:40:48.973Z,15.17
2019-03-25T03:12:52.021Z,9.60
2019-03-25T03:15:46.955Z,6.17
2019-03-25T07:11:55.523Z,10.00
2019-03-25T07:14:37.135Z,11.23
2019-03-25T07:17:12.386Z,14.07
2019-03-25T07:19:45.842Z,13.23
2019-03-25T07:22:34.254Z,15.43
2019-03-25T07:25:12.164Z,10.30
2019-03-25T07:27:50.547Z,10.13
2019-03-25T07:30:27.380Z,11.87
2019-03-25T07:32:56.125Z,9.77
2019-03-25T07:35:42.863Z,10.23
2019-03-25T07:38:19.530Z,12.10
2019-03-25T07:40:58.554Z,11.00
2019-03-25T07:58:59.993Z,8.27
2019-03-25T08:01:48.046Z,10.10
2019-03-25T08:04:34.070Z,16.10
2019-03-25T08:07:12.143Z,14.50
2019-03-25T08:09:58.559Z,17.57
2019-03-25T08:12:40.676Z,14.43
2019-03-25T08:15:15.503Z,15.60
2019-03-25T08:17:55.148Z,13.27
2019-03-25T08:21:31.842Z,15.80
2019-03-25T08:23:14.140Z,18.43
2019-03-25T08:25:50.215Z,21.23
2019-03-25T08:28:34.541Z,9.67
2019-03-25T08:31:13.835Z,8.83
2019-03-25T08:34:16.003Z,6.97
2019-03-25T08:36:46.082Z,6.70
2019-03-25T08:39:35.108Z,7.43
2019-03-25T08:42:19.447Z,7.20
2019-03-25T08:45:00.682Z,9.53
2019-03-25T08:47:40.878Z,12.40
2019-03-25T08:50:22.091Z,12.00
2019-03-25T08:53:00.320Z,14.07
2019-03-25T08:55:41.442Z,11.83
2019-03-25T09:17:35.693Z,7.50
2019-03-25T09:29:43.356Z,7.83
2019-03-25T09:35:28.507Z,9.63
2019-03-25T09:38:07.753Z,8.60
2019-03-25T09:40:39.683Z,7.47
2019-03-25T09:43:20.803Z,13.10
2019-03-25T09:45:55.102Z,10.30
2019-03-25T09:48:38.870Z,7.77
2019-03-25T09:51:20.355Z,10.67
2019-03-25T09:53:48.888Z,11.80
2019-03-25T09:56:27.458Z,7.33
2019-03-25T09:59:05.487Z,8.90
2019-03-25T10:07:52.220Z,9.67
2019-03-25T10:10:39.412Z,6.30
2019-03-25T10:13:34.238Z,9.70
2019-03-25T10:16:10.915Z,10.20
2019-03-25T10:21:34.549Z,8.50
2019-03-25T10:24:13.339Z,7.70
2019-03-25T10:26:55.711Z,9.33
2019-03-25T10:29:29.246Z,9.47
2019-03-25T10:46:33.728Z,6.27
2019-03-25T10:49:15.951Z,5.90
2019-03-25T10:52:08.972Z,5.50
2019-03-25T11:00:23.716Z,6.80
2019-03-25T11:03:10.798Z,8.73
2019-03-25T11:08:48.511Z,4.77
2019-03-25T11:11:36.461Z,4.53
2019-03-25T11:14:17.923Z,3.47
2019-03-25T11:16:49.786Z,3.10
2019-03-25T11:19:20.712Z,4.03
2019-03-25T11:24:45.474Z,2.33
2019-03-25T11:27:36.651Z,2.00
2019-03-25T11:30:13.313Z,1.73
2019-03-25T11:32:58.934Z,1.33
2019-03-25T11:35:32.643Z,3.83
2019-03-25T11:38:20.781Z,2.53
2019-03-25T11:40:56.845Z,2.53
2019-03-25T11:46:44.257Z,4.10
2019-03-25T11:49:20.839Z,3.43
2019-03-25T11:52:22.639Z,3.30
2019-03-25T11:55:01.508Z,3.70
2019-03-25T11:57:34.793Z,2.43
2019-03-25T12:00:25.248Z,2.87
2019-03-25T12:34:48.923Z,6.07
2019-03-25T12:37:37.981Z,4.00
2019-03-25T12:46:12.827Z,6.63
2019-03-25T12:57:44.375Z,7.90
2019-03-25T13:21:45.340Z,8.50
2019-03-25T13:27:39.954Z,10.65
2019-03-25T13:30:26.553Z,5.00
2019-03-25T13:36:07.192Z,3.83
2019-03-25T13:50:47.290Z,3.80
2019-03-25T13:53:44.730Z,3.90
2019-03-25T13:56:18.745Z,3.50
2019-03-25T13:59:02.566Z,4.07
2019-03-25T14:07:43.422Z,4.40
2019-03-25T14:31:58.211Z,2.40
2019-03-25T14:34:31.248Z,1.77
2019-03-25T14:46:30.553Z,11.37
2019-03-25T14:52:05.364Z,7.67
2019-03-25T14:55:03.676Z,4.73
2019-03-25T14:57:39.397Z,3.57
2019-03-25T15:00:24.616Z,10.07
2019-03-25T15:03:02.074Z,7.33
2019-03-25T15:05:39.788Z,5.97
2019-03-25T15:08:19.162Z,6.20
2019-03-25T15:11:00.110Z,5.07
2019-03-25T15:13:35.854Z,4.50
2019-03-25T15:19:00.750Z,4.83
2019-03-25T15:21:39.430Z,6.27
2019-03-25T15:24:24.524Z,5.97
2019-03-25T15:27:10.804Z,5.00
2019-03-25T15:29:49.156Z,5.77
2019-03-25T15:32:27.769Z,8.93
2019-03-25T15:35:14.288Z,7.53
2019-03-25T15:37:50.930Z,7.70
2019-03-25T15:45:57.868Z,5.37
2019-03-25T15:48:33.819Z,7.63
2019-03-25T15:51:09.570Z,9.10
2019-03-25T15:56:37.134Z,9.40
2019-03-25T15:59:14.424Z,6.50
2019-03-25T16:04:53.114Z,5.43
2019-03-25T16:07:47.898Z,4.23
2019-03-25T16:10:28.936Z,3.47
2019-03-25T16:13:13.272Z,3.20
2019-03-25T16:15:47.449Z,4.00
2019-03-25T16:18:37.204Z,2.97
2019-03-25T16:21:24.304Z,4.87
2019-03-25T16:23:57.282Z,4.73
2019-03-25T16:26:34.175Z,3.47
2019-03-25T16:32:14.460Z,4.20
2019-03-25T16:34:49.168Z,4.47
2019-03-25T16:37:36.702Z,6.67
2019-03-25T16:40:16.236Z,7.10
2019-03-25T16:46:09.680Z,8.10
2019-03-25T16:48:26.381Z,8.07
2019-03-25T16:54:24.168Z,5.63
2019-03-25T16:57:15.749Z,2.40
2019-03-25T17:00:02.159Z,3.13
2019-03-25T17:02:37.033Z,3.07
2019-03-25T17:05:19.518Z,3.83
2019-03-25T17:07:51.906Z,3.13
2019-03-25T17:10:33.072Z,4.87
2019-03-25T17:13:07.029Z,4.70
2019-03-25T17:15:47.739Z,2.80
2019-03-25T17:18:26.051Z,6.07
2019-03-25T17:21:00.051Z,4.83
2019-03-25T17:26:42.275Z,2.73
2019-03-25T17:29:11.750Z,2.53
2019-03-25T17:31:50.603Z,3.73
2019-03-25T17:34:23.340Z,2.23
2019-03-25T17:37:06.528Z,2.57
2019-03-25T17:39:36.446Z,1.83
2019-03-25T17:42:06.703Z,3.63
2019-03-25T17:44:43.355Z,1.60
2019-03-25T17:47:18.973Z,2.10
2019-03-25T17:49:55.954Z,2.87
2019-03-25T17:52:28.347Z,5.90
2019-03-25T17:55:00.589Z,6.40
2019-03-25T17:57:31.501Z,7.13
2019-03-25T18:00:03.066Z,9.30
2019-03-25T18:02:40.416Z,5.53
2019-03-25T18:05:08.933Z,4.83
2019-03-25T18:11:15.219Z,5.20
2019-03-25T18:16:46.521Z,4.20
2019-03-25T18:19:27.015Z,3.30
2019-03-25T18:22:01.908Z,4.53
2019-03-25T18:24:35.884Z,5.43
2019-03-25T18:27:25.885Z,5.23
2019-03-25T18:30:07.663Z,3.63
2019-03-25T18:32:45.129Z,8.03
2019-03-25T18:35:29.118Z,20.07
2019-03-25T18:38:21.299Z,11.43
2019-03-25T18:40:50.641Z,14.03
2019-03-25T18:43:34.534Z,10.77
2019-03-25T18:46:05.863Z,11.57
2019-03-25T18:48:42.394Z,12.80
2019-03-25T18:51:17.944Z,14.17
2019-03-25T18:56:48.306Z,8.57
2019-03-25T19:02:26.731Z,10.90
2019-03-25T19:05:03.570Z,7.30
2019-03-25T19:07:42.803Z,9.43
2019-03-25T20:14:51.172Z,4.90
2019-03-25T20:17:28.130Z,6.23
2019-03-25T20:20:11.105Z,4.63
2019-03-25T20:29:10.644Z,7.50
2019-03-25T20:34:57.227Z,4.80
2019-03-25T20:37:39.718Z,4.83
2019-03-25T21:38:47.888Z,5.33
2019-03-25T22:06:00.587Z,6.00
2019-03-25T22:11:10.325Z,4.97
2019-03-25T22:13:46.050Z,5.80
2019-03-25T22:16:21.487Z,4.50
2019-03-25T22:18:59.019Z,6.03
2019-03-25T22:21:54.406Z,5.23
2019-03-25T22:24:35.707Z,3.83
2019-03-25T22:27:08.897Z,4.53
2019-03-25T22:29:43.541Z,2.93
2019-03-25T22:32:22.145Z,5.00
2019-03-25T22:34:58.110Z,3.50
2019-03-25T22:37:31.851Z,4.40
2019-03-25T22:40:10.592Z,4.83
2019-03-25T22:45:37.877Z,6.10
2019-03-25T22:48:10.561Z,5.87
2019-03-25T22:50:55.467Z,3.43
2019-03-25T22:53:26.987Z,4.23
2019-03-25T22:56:10.343Z,3.10
2019-03-25T22:58:58.101Z,4.77
2019-03-25T23:01:33.832Z,3.57
2019-03-25T23:04:16.401Z,4.97
2019-03-25T23:06:51.166Z,4.27
2019-03-25T23:09:30.722Z,2.33
2019-03-25T23:12:04.672Z,3.73
2019-03-25T23:14:46.508Z,4.17
2019-03-25T23:17:21.954Z,1.83
2019-03-25T23:19:56.696Z,3.00
2019-03-25T23:25:11.525Z,10.63
2019-03-25T23:27:46.568Z,5.70
2019-03-25T23:30:22.566Z,2.53
2019-03-25T23:32:53.798Z,6.03
2019-03-25T23:35:26.884Z,3.90
2019-03-25T23:38:07.217Z,1.33
2019-03-25T23:40:40.401Z,2.67
2019-03-25T23:43:11.772Z,3.27
2019-03-25T23:45:43.725Z,4.67
2019-03-25T23:48:14.494Z,5.13
2019-03-25T23:50:48.085Z,3.90
2019-03-25T23:53:18.065Z,4.50
2019-03-25T23:55:49.760Z,7.57
2019-03-25T23:58:21.476Z,5.23
